CheckWX is a tool to help pilots better visualize weather data.  It is not intended as a substitute for an official pre-flight weather briefing.

12:52:32 UTC

VIDP TAF
Indira Gandhi International Airport
New Delhi, India
TAF VIDP 042300Z 0500/0606 23004KT 1800 HZ FEW100 BECMG 0503/0505 29008KT 3500 HZ FEW035 SCT100 BECMG 0506/0508 5000 HZ TEMPO 0509/0511 FEW035CB BECMG 0518/0520 VRB02KT 3000 HZ SCT035 BKN100 BECMG 0600/0602 25004KT 1500 BR FEW040 SCT100 BECMG 0604/0606 32008KT 3000 HZ FEW100

Apr-5@
00:00 UTC

Apr-5 @ 00:00 UTC

Apr-5@
03:00 UTC

Apr-5 @ 03:00 UTC

TAF VIDP 042300Z 0500/0606 23004KT 1800 HZ FEW100

Expired

Wind
  • 230° at 4 KTS
Conditions
Haze
Cloud Levels
  • Few at 10,000' AGL

Apr-5@
03:00 UTC

Apr-5 @ 03:00 UTC

Apr-5@
06:00 UTC

Apr-5 @ 06:00 UTC

BECMG 0503/0505 29008KT 3500 HZ FEW035 SCT100

Expired

Wind
  • 290° at 8 KTS
Conditions
Haze
Cloud Levels
  • Few at 3,500' AGL
  • Scattered at 10,000' AGL

Apr-5@
06:00 UTC

Apr-5 @ 06:00 UTC

Apr-5@
18:00 UTC

Apr-5 @ 18:00 UTC

BECMG 0506/0508 5000 HZ

Becoming

Becoming Conditions expected by Sun, Apr 5, 2020 @ 08:00 UTC

Wind
  • 290° at 8 KTS
Conditions
Haze
Cloud Levels
  • Few at 3,500' AGL
  • Scattered at 10,000' AGL

Apr-5@
09:00 UTC

Apr-5 @ 09:00 UTC

Apr-5@
11:00 UTC

Apr-5 @ 11:00 UTC

TEMPO 0509/0511 FEW035CB

Expired

Cloud Levels
  • Few at 3,500' AGL

Apr-5@
18:00 UTC

Apr-5 @ 18:00 UTC

Apr-6@
00:00 UTC

Apr-6 @ 00:00 UTC

BECMG 0518/0520 VRB02KT 3000 HZ SCT035 BKN100

Becoming

Becoming Conditions expected by Sun, Apr 5, 2020 @ 20:00 UTC

Wind
  • Variable at 2 KTS
Conditions
Haze
Cloud Levels
  • Scattered at 3,500' AGL
  • Broken at 10,000' AGL

Apr-6@
00:00 UTC

Apr-6 @ 00:00 UTC

Apr-6@
04:00 UTC

Apr-6 @ 04:00 UTC

BECMG 0600/0602 25004KT 1500 BR FEW040 SCT100

Becoming

Becoming Conditions expected by Mon, Apr 6, 2020 @ 02:00 UTC

Wind
  • 250° at 4 KTS
Conditions
Mist
Cloud Levels
  • Few at 4,000' AGL
  • Scattered at 10,000' AGL

Apr-6@
04:00 UTC

Apr-6 @ 04:00 UTC

Apr-6@
06:00 UTC

Apr-6 @ 06:00 UTC

BECMG 0604/0606 32008KT 3000 HZ FEW100

Becoming

Becoming Conditions expected by Mon, Apr 6, 2020 @ 06:00 UTC

Wind
  • 320° at 8 KTS
Conditions
Haze
Cloud Levels
  • Few at 10,000' AGL